Providence, Utah
Current Conditions -  °F | °C
As of 7:51 AM on Saturday 25 Oct 2014 (Local Time) from KLGU Reporting Station
Clear Clear  
Wind Chill: 33°   Ceiling: Unl
Heat Index: 33°   Visibility: 10mi
Dew Point: 29°   Wind: 0mph
Humidity: 85%   Direction: NA
Pressure: 30.08"   Gusts: NA
Location:  41.71°N, 111.82°W
Report Text: KLGU 251351Z AUTO 00000KT 10SM CLR 01/M02 A3008 RMK AO2 SLP178 T00061017 TSNO
Loading
Personal Weather Stations






























Interactive Weather Map
Tropical Storm Tracking
New forecast layout! Learn more

10-Day Weather Forecast

Advertisements
Track Severe Weather on mobile